Frontenac, Minnesota
Current Conditions -  °F | °C
As of 5:55 PM on Monday 20 Oct 2014 (Local Time) from KRGK Reporting Station
Clear Clear  
Wind Chill: 61°   Ceiling: Unl
Heat Index: 61°   Visibility: 10mi
Dew Point: 39°   Wind: 5mph
Humidity: 45%   Direction: 10°N
Pressure: 29.99"   Gusts: NA
Location:  44.51°N, 92.36°W
Report Text: KRGK 202255Z AUTO 01004KT 10SM CLR 16/04 A2999 RMK AO2
Loading
Personal Weather Stations






























Interactive Weather Map
Tropical Storm Tracking
New forecast layout! Learn more

10-Day Weather Forecast

Advertisements
Track Severe Weather on mobile